모두
Vercelli Airport (Vercelli, Piedmont, Italy) LILI 기상
There is no TAF data available at LILI. Showing TAF data for LIMN (19 mi 동북).
LIMN 터미널 지역 예측(LILI에 대한 데이터 없음)
| Date | Time (CEST) | Flight Rules | Wind Dir. | Speed | Type | Height AGL (ft) | Visibility | Remarks | ||||||
|---|---|---|---|---|---|---|---|---|---|---|---|---|---|---|
There is no METAR data available at LILI. Showing METAR data for LIMN (19 mi 동북).
최근 LIMN METAR 이력(LILI에 대한 데이터 없음)
| Date | Time (CEST) | Flight Rules | Wind Dir. | Speed | Type | Height AGL (ft) | Visibility | Temp (°C) | Temp (°F) | Dew Point (°C) | Dew Point (°F) | Rel. Humid. | Pressure | Density Altitude | Remarks |
|---|---|---|---|---|---|---|---|---|---|---|---|---|---|---|---|
| 04-5월 | 01:55 | n/a | 50° | 2 kt | Missing | 13° | 55° | 7° | 44° | 67% | 1017 mb | 234 ft | |||
| 04-5월 | 00:55 | n/a | Variable | 2 kt | Missing | 14° | 57° | 7° | 44° | 63% | 1018 mb | 324 ft | |||
| 03-5월 | 23:55 | n/a | Variable | 2 kt | Missing | 14° | 57° | 7° | 44° | 63% | 1018 mb | 324 ft | |||
| 03-5월 | 22:55 | n/a | 270° | 2 kt | Missing | 16° | 60° | 7° | 44° | 55% | 1017 mb | 594 ft | |||
| 03-5월 | 21:55 | n/a | 240° | 4 kt | Missing | 17° | 62° | 6° | 42° | 48% | 1017 mb | 714 ft | |||
| 03-5월 | 20:55 | n/a | 190° | 3 kt | Missing | 17° | 62° | 5° | 41° | 45% | 1017 mb | 714 ft | |||
| 03-5월 | 19:55 | n/a | 210° | 5 kt | Missing | 20° | 68° | 3° | 37° | 32% | 1017 mb | 1,074 ft | |||
| 03-5월 | 18:55 | n/a | 170° | 3 kt | Missing | 22° | 71° | 6° | 42° | 35% | 1016 mb | 1,344 ft | |||
| 03-5월 | 17:55 | n/a | 130° | 3 kt | Missing | 23° | 73° | 3° | 37° | 27% | 1016 mb | 1,464 ft | |||
| 03-5월 | 16:55 | n/a | 170° | 4 kt | Missing | 23° | 73° | 5° | 41° | 31% | 1017 mb | 1,434 ft | |||
| 03-5월 | 15:55 | n/a | 200° | 4 kt | Missing | 22° | 71° | 5° | 41° | 33% | 1018 mb | 1,284 ft | |||
| 03-5월 | 14:55 | n/a | 210° | 4 kt | Missing | 22° | 71° | 5° | 41° | 33% | 1018 mb | 1,284 ft | |||
| 03-5월 | 13:55 | n/a | Variable | 4 kt | Missing | 22° | 71° | 4° | 39° | 31% | 1019 mb | 1,255 ft | |||
| 03-5월 | 12:55 | n/a | 210° | 5 kt | Missing | 21° | 69° | 6° | 42° | 38% | 1019 mb | 1,135 ft | |||
| 03-5월 | 11:55 | n/a | 180° | 4 kt | Missing | 20° | 68° | 6° | 42° | 40% | 1019 mb | 1,015 ft | |||
| 03-5월 | 10:55 | n/a | 170° | 3 kt | Missing | 19° | 66° | 5° | 41° | 40% | 1019 mb | 895 ft | |||
| 03-5월 | 09:55 | n/a | 150° | 4 kt | Missing | 18° | 64° | 4° | 39° | 39% | 1020 mb | 745 ft | |||
| 03-5월 | 08:55 | n/a | 80° | 5 kt | Missing | 16° | 60° | 7° | 44° | 55% | 1020 mb | 505 ft | |||
| 03-5월 | 08:32 | n/a | 40° | 4 kt | Missing | 14° | 57° | 8° | 46° | 67% | 1020 mb | 265 ft | |||
| 03-5월 | 07:55 | n/a | Variable | 2 kt | Missing | 12° | 53° | 9° | 48° | 82% | 1020 mb | 25 ft | |||
| 03-5월 | 06:55 | n/a | 20° | 5 kt | Missing | 10° | 50° | 8° | 46° | 87% | 1019 mb | -185 ft | |||
| 03-5월 | 05:55 | n/a | 30° | 2 kt | Missing | 10° | 50° | 7° | 44° | 82% | 1019 mb | -185 ft | |||
| 03-5월 | 04:55 | n/a | 10° | 5 kt | Missing | 10° | 50° | 7° | 44° | 82% | 1019 mb | -185 ft | |||
| 03-5월 | 03:55 | n/a | 20° | 4 kt | Missing | 10° | 50° | 6° | 42° | 76% | 1020 mb | -215 ft |
로그인
| 귀하의 브라우저는 지원되지 않습니다.. 브라우저를 업그레이드하세요 |
